Dinslaken/Schwarze Heide Airport

EDLD · North Rhine-Westphalia, Niemcy

Historia METAR EDLD · Dinslaken/Schwarze Heide Airport

Poniżej widzisz METAR-y z ostatnich kilku dni. Wybierz rok, aby przeglądać starsze METAR-y, począwszy od roku 2007.

29 lutego 2024

Czas Kod Pogoda Temp. Widoczność Sufit Wiatr METAR/SPECI
02:20
V
5 °C 10 km+ - 150° 150° 11 kt METAR EDDL 290120Z AUTO 15011KT CAVOK 05/01 Q1017 NOSIG
01:50
V
5 °C 10 km+ - 150° 150° 10 kt METAR EDDL 290050Z AUTO 15010KT CAVOK 05/01 Q1017 NOSIG
01:20
V
5 °C 10 km+ - 150° 150° 9 kt METAR EDDL 290020Z AUTO 15009KT CAVOK 05/02 Q1018 NOSIG
00:50
V
5 °C 10 km+ - 150° 150° 8 kt METAR EDDL 282350Z AUTO 15008KT CAVOK 05/02 Q1018 NOSIG
00:20
V
4 °C 10 km+ - 160° 160° 8 kt METAR EDDL 282320Z AUTO 16008KT CAVOK 04/02 Q1018 NOSIG

28 lutego 2024

Czas Kod Pogoda Temp. Widoczność Sufit Wiatr METAR/SPECI
23:50
V
4 °C 10 km+ - 160° 160° 8 kt METAR EDDL 282250Z AUTO 16008KT CAVOK 04/02 Q1018 NOSIG
23:20
V
5 °C 10 km+ - 150° 150° 9 kt METAR EDDL 282220Z AUTO 15009KT CAVOK 05/02 Q1018 NOSIG
22:50
V
6 °C 10 km+ - 160° 160° 8 kt METAR EDDL 282150Z AUTO 16008KT CAVOK 06/02 Q1019 NOSIG
22:20
V
6 °C 10 km+ - 160° 160° 8 kt METAR EDDL 282120Z AUTO 16008KT CAVOK 06/02 Q1019 NOSIG
21:50
V
6 °C 10 km+ - 150° 150° 10 kt METAR EDDL 282050Z AUTO 15010KT CAVOK 06/02 Q1019 NOSIG
21:20
V
7 °C 10 km+ - 160° 160° 9 kt METAR EDDL 282020Z AUTO 16009KT CAVOK 07/03 Q1019 NOSIG
20:50
V
7 °C 10 km+ - 150° 150° 8 kt METAR EDDL 281950Z AUTO 15008KT CAVOK 07/03 Q1019 NOSIG
20:20
V
7 °C 10 km+ - 150° 150° 7 kt METAR EDDL 281920Z AUTO 15007KT CAVOK 07/02 Q1020 NOSIG
19:50
V
7 °C 10 km+ - 150° 150° 7 kt METAR EDDL 281850Z AUTO 15007KT CAVOK 07/02 Q1020 NOSIG
19:20
V
7 °C 10 km+ - 150° 150° 4 kt METAR EDDL 281820Z AUTO 15004KT 120V180 CAVOK 07/01 Q1020 NOSIG
18:50
V
7 °C 10 km+ - 160° 160° 4 kt METAR EDDL 281750Z AUTO 16004KT 120V180 CAVOK 07/01 Q1020 NOSIG
18:20
V
7 °C 10 km+ - 180° 180° 5 kt METAR EDDL 281720Z AUTO 18005KT CAVOK 07/02 Q1020 NOSIG
17:50
V
8 °C 10 km+ - 180° 180° 6 kt METAR EDDL 281650Z AUTO 18006KT CAVOK 08/02 Q1020 NOSIG
17:20
V
9 °C 10 km+ - 180° 180° 7 kt METAR EDDL 281620Z AUTO 18007KT CAVOK 09/02 Q1020 NOSIG
16:50
V
9 °C 10 km+ - 190° 190° 6 kt METAR EDDL 281550Z AUTO 19006KT CAVOK 09/02 Q1021 NOSIG
16:20
V
9 °C 10 km+ - 200° 200° 6 kt METAR EDDL 281520Z AUTO 20006KT CAVOK 09/03 Q1021 NOSIG
15:50
V
9 °C 10 km+ - 190° 190° 6 kt METAR EDDL 281450Z AUTO 19006KT CAVOK 09/03 Q1021 NOSIG
15:20
V
9 °C 10 km+ - 190° 190° 5 kt METAR EDDL 281420Z AUTO 19005KT 160V230 CAVOK 09/03 Q1021 NOSIG
14:50
V
9 °C 10 km+ - 200° 200° 7 kt METAR EDDL 281350Z AUTO 20007KT CAVOK 09/03 Q1021 NOSIG
14:20
V
8 °C 10 km+ - 200° 200° 6 kt METAR EDDL 281320Z AUTO 20006KT 160V230 CAVOK 08/03 Q1021 NOSIG
13:50
V
8 °C 10 km+ - 200° 200° 6 kt METAR EDDL 281250Z AUTO 20006KT CAVOK 08/03 Q1022 NOSIG
13:20
V
7 °C 10 km+ - 200° 200° 7 kt METAR EDDL 281220Z AUTO 20007KT 9999 FEW016 07/03 Q1022 NOSIG
12:50
V
7 °C 10 km+ - 190° 190° 7 kt METAR EDDL 281150Z AUTO 19007KT 160V220 9999 SCT013 07/03 Q1022 NOSIG
12:20
M
6 °C 8 km 1.000 ft 190° 190° 7 kt METAR EDDL 281120Z AUTO 19007KT 150V230 8000 BKN010 06/03 Q1023 BECMG SCT015
11:50
I
5 °C 6 km 800 ft 180° 180° 7 kt METAR EDDL 281050Z AUTO 18007KT 160V220 6000 OVC008 05/03 Q1023 BECMG BKN012
11:20
I
4 °C 5 km 600 ft 190° 190° 7 kt METAR EDDL 281020Z AUTO 19007KT 160V230 5000 BR OVC006 04/03 Q1023 BECMG BKN012
10:50
L
4 °C 3,6 km 400 ft 190° 190° 6 kt METAR EDDL 280950Z AUTO 19006KT 3600 BR OVC004 04/03 Q1023 BECMG 5000 BKN005
10:20
L
3 °C 3,2 km 300 ft 180° 180° 7 kt METAR EDDL 280920Z AUTO 18007KT 150V210 3200 BR OVC003 03/02 Q1023 BECMG 9999 BKN005
09:50
L
3 °C 2,5 km 300 ft 180° 180° 7 kt METAR EDDL 280850Z AUTO 18007KT 150V220 2500 BR OVC003 03/02 Q1023 BECMG 4000 BR BKN005
09:20
L
3 °C 1,7 km 200 ft 190° 190° 7 kt METAR EDDL 280820Z AUTO 19007KT 1700 BR OVC002 03/02 Q1022 BECMG 4000 BKN005
08:50
L
2 °C 1,7 km 200 ft 190° 190° 8 kt METAR EDDL 280750Z AUTO 19008KT 1700 BR OVC002 02/02 Q1022 BECMG 3000 BKN005
08:20
L
2 °C 1,2 km 200 ft 190° 190° 7 kt METAR EDDL 280720Z AUTO 19007KT 160V220 1300 1200 R23R/1800N R23L/1800D BR OVC002 02/02 Q1022 BECMG 2500 BKN005
07:50
L
2 °C 2,2 km 200 ft 190° 190° 7 kt METAR EDDL 280650Z AUTO 19007KT 2200 BR OVC002 02/02 Q1022 BECMG 4000 BKN005
07:20
L
2 °C 650 m 100 ft 190° 190° 6 kt METAR EDDL 280620Z AUTO 19006KT 160V220 0900 0650 R23R/1600N R23L/P2000N FG OVC001 02/02 Q1022 BECMG 1200 BR OVC003
06:50
L
2 °C 650 m 200 ft 190° 190° 5 kt METAR EDDL 280550Z AUTO 19005KT 0750 0650 R23R/0900N R23L/0900N FG BKN002 02/02 Q1021 TEMPO 0450
06:20
L
2 °C 400 m 300 ft 210° 210° 8 kt METAR EDDL 280520Z AUTO 21008KT 0500 0400 R23R/0700D R23L/1500N FG VV003 02/02 Q1021 TEMPO 0300
05:50
L
2 °C 1,1 km 200 ft 220° 220° 6 kt METAR EDDL 280450Z AUTO 22006KT 1400 1100 R23R/1400D R23L/1800D BR OVC002 02/02 Q1021 TEMPO 0800 FG
05:20
L
2 °C 1,9 km 200 ft 190° 190° 4 kt METAR EDDL 280420Z AUTO 19004KT 1900 BR OVC002 02/02 Q1021 TEMPO 1200 BR
04:50
L
2 °C 600 m 200 ft 200° 200° 6 kt METAR EDDL 280350Z AUTO 20006KT 1000 0600 R23R/1800D R23L/P2000N BCFG OVC002 02/02 Q1020 TEMPO 0600 FZFG
04:20
L
2 °C 2,4 km 200 ft 200° 200° 4 kt METAR EDDL 280320Z AUTO 20004KT 2400 BR OVC002 02/01 Q1020 TEMPO 4000 BR
03:50
L
1 °C 2,6 km 200 ft 180° 180° 4 kt METAR EDDL 280250Z AUTO 18004KT 2600 BR OVC002 01/00 Q1020 TEMPO 4000 BR
03:20
L
0 °C 5 km 300 ft 140° 140° 3 kt METAR EDDL 280220Z AUTO 14003KT 120V190 5000 BR BKN003 M00/M01 Q1020 TEMPO 2000 BR
02:50
I
-1 °C 5 km 500 ft 120° 120° 3 kt METAR EDDL 280150Z AUTO 12003KT 5000 BR BKN005 BKN008 M01/M02 Q1020 TEMPO 2000 BR
02:20
I
-1 °C 4,8 km - Var Var 1 kt METAR EDDL 280120Z AUTO VRB01KT 4800 BR FEW008 M01/M01 Q1020 TEMPO 2000 BR
01:50
M
-1 °C 5 km - Var Var 2 kt METAR EDDL 280050Z AUTO VRB02KT 5000 BR FEW010 M01/M01 Q1020 TEMPO 2000 BR
01:20
L
-2 °C 650 m - Var Var 1 kt METAR EDDL 280020Z AUTO VRB01KT 1900 0650 R23R/1000U R23L/P2000N BCFG FEW002 M02/M03 Q1020 TEMPO 1200 BR
00:50
L
-1 °C 300 m - 230° 230° 3 kt METAR EDDL 272350Z AUTO 23003KT 190V260 1900 0300 R23R/0400U R23L/1100U BCFG FEW002 M01/M02 Q1020 TEMPO 1200 BR
00:20
L
-1 °C 800 m - 360° 360° 0 kt METAR EDDL 272320Z AUTO 00000KT 4100 0800 R23R/1900N R23L/P2000N BCFG NSC M01/M01 Q1020 TEMPO 2000 BR

27 lutego 2024

Czas Kod Pogoda Temp. Widoczność Sufit Wiatr METAR/SPECI
23:50
I
0 °C 1,9 km - 310° 310° 2 kt METAR EDDL 272250Z AUTO 31002KT 4200 1900 BR NSC 00/M00 Q1020 TEMPO 2000 BR
23:20
I
0 °C 4,3 km - Var Var 1 kt METAR EDDL 272220Z AUTO VRB01KT 4300 BR NSC M00/M01 Q1019 TEMPO 2000 BR
22:50
I
-1 °C 1,6 km - Var Var 2 kt METAR EDDL 272150Z AUTO VRB02KT 5000 1600 BR NCD M01/M01 Q1020 TEMPO 2000 BR
22:20
M
1 °C 5 km - 300° 300° 2 kt METAR EDDL 272120Z AUTO 30002KT 5000 BR FEW001 01/01 Q1020 TEMPO 2000 BR
21:50
M
1 °C 5 km - 300° 300° 2 kt METAR EDDL 272050Z AUTO 30002KT 5000 BR NCD 01/01 Q1019 TEMPO 3000 BR
21:20
M
2 °C 7 km - Var Var 1 kt METAR EDDL 272020Z AUTO VRB01KT 7000 NCD 02/01 Q1019 TEMPO 4500 BR
20:50
M
3 °C 7 km - 310° 310° 4 kt METAR EDDL 271950Z AUTO 31004KT 7000 NCD 03/02 Q1019 NOSIG
20:20
V
3 °C 8 km - 290° 290° 4 kt METAR EDDL 271920Z AUTO 29004KT 8000 NCD 03/02 Q1019 NOSIG
19:50
V
3 °C 10 km+ - 040° 040° 3 kt METAR EDDL 271850Z AUTO 04003KT CAVOK 03/02 Q1019 NOSIG
19:20
V
4 °C 10 km+ - 330° 330° 5 kt METAR EDDL 271820Z AUTO 33005KT CAVOK 04/02 Q1018 NOSIG
18:50
V
5 °C 10 km+ - 330° 330° 6 kt METAR EDDL 271750Z AUTO 33006KT CAVOK 05/03 Q1018 NOSIG
18:20
V
6 °C 10 km+ - 320° 320° 6 kt METAR EDDL 271720Z AUTO 32006KT CAVOK 06/03 Q1018 NOSIG
17:50
V
7 °C 10 km+ - 340° 340° 5 kt METAR EDDL 271650Z AUTO 34005KT CAVOK 07/03 Q1017 NOSIG
17:20
V
8 °C 10 km+ - 010° 010° 3 kt METAR EDDL 271620Z AUTO 01003KT 330V050 CAVOK 08/03 Q1017 NOSIG
16:50
V
8 °C 10 km+ - 010° 010° 6 kt METAR EDDL 271550Z AUTO 01006KT 340V050 CAVOK 08/02 Q1017 NOSIG
16:20
V
8 °C 10 km+ - 350° 350° 7 kt METAR EDDL 271520Z AUTO 35007KT 320V020 CAVOK 08/02 Q1017 NOSIG
15:50
V
8 °C 10 km+ - 360° 360° 7 kt METAR EDDL 271450Z AUTO 36007KT 330V050 CAVOK 08/02 Q1017 NOSIG
15:20
V
8 °C 10 km+ - 030° 030° 7 kt METAR EDDL 271420Z AUTO 03007KT 340V060 CAVOK 08/03 Q1017 NOSIG
14:50
V
7 °C 10 km+ - 030° 030° 9 kt METAR EDDL 271350Z AUTO 03009KT 360V060 CAVOK 07/02 Q1017 NOSIG
14:20
V
7 °C 10 km+ - 350° 350° 7 kt METAR EDDL 271320Z AUTO 35007KT 320V020 9999 FEW017 07/03 Q1017 NOSIG
13:50
V
7 °C 10 km+ - 010° 010° 8 kt METAR EDDL 271250Z AUTO 01008KT 340V070 9999 FEW016 07/03 Q1017 NOSIG
13:20
V
7 °C 10 km+ - 040° 040° 10 kt METAR EDDL 271220Z AUTO 04010KT 9999 SCT015 07/03 Q1017 NOSIG
12:50
M
6 °C 10 km+ 1.400 ft 010° 010° 9 kt METAR EDDL 271150Z AUTO 01009KT 340V040 9999 BKN014 06/02 Q1018 BECMG SCT015
12:20
M
5 °C 10 km+ 1.200 ft 020° 020° 9 kt METAR EDDL 271120Z AUTO 02009KT 350V060 9999 BKN012 05/02 Q1018 BECMG SCT013
11:50
M
5 °C 10 km+ 1.200 ft 030° 030° 10 kt METAR EDDL 271050Z AUTO 03010KT 9999 BKN012 05/02 Q1018 BECMG SCT013
11:20
M
6 °C 10 km+ 1.300 ft 020° 020° 10 kt METAR EDDL 271020Z AUTO 02010KT 350V050 9999 BKN013 06/03 Q1018 BECMG BKN015
10:50
M
6 °C 10 km+ 1.200 ft 020° 020° 10 kt METAR EDDL 270950Z AUTO 02010KT 360V060 9999 BKN012 06/02 Q1017 BECMG SCT013
10:20
M
6 °C 10 km+ 1.200 ft 040° 040° 11 kt METAR EDDL 270920Z AUTO 04011KT 9999 BKN012 06/03 Q1017 BECMG SCT012
09:50
M
5 °C 10 km+ 1.200 ft 030° 030° 9 kt METAR EDDL 270850Z AUTO 03009KT 9999 BKN012 05/03 Q1017 TEMPO SCT011
09:20
M
5 °C 10 km+ 1.100 ft 040° 040° 10 kt METAR EDDL 270820Z AUTO 04010KT 9999 BKN011 05/03 Q1017 NOSIG
08:50
M
5 °C 10 km+ 1.100 ft 020° 020° 9 kt METAR EDDL 270750Z AUTO 02009KT 9999 OVC011 05/03 Q1016 TEMPO BKN009
08:20
M
5 °C 10 km+ 1.100 ft 020° 020° 8 kt METAR EDDL 270720Z AUTO 02008KT 9999 BKN011 05/03 Q1016 TEMPO BKN009
07:50
M
5 °C 10 km+ 1.200 ft 030° 030° 8 kt METAR EDDL 270650Z AUTO 03008KT 9999 BKN012 05/03 Q1016 TEMPO SCT012
07:20
M
5 °C 10 km+ 1.200 ft 020° 020° 9 kt METAR EDDL 270620Z AUTO 02009KT 350V050 9999 BKN012 05/03 Q1016 BECMG BKN012
06:50
M
5 °C 10 km+ 1.300 ft 030° 030° 8 kt METAR EDDL 270550Z AUTO 03008KT 9999 BKN013 05/03 Q1015 NOSIG
06:20
V
5 °C 10 km+ - 030° 030° 9 kt METAR EDDL 270520Z AUTO 03009KT 9999 SCT013 05/03 Q1015 TEMPO BKN013
05:50
V
5 °C 10 km+ - 030° 030° 10 kt METAR EDDL 270450Z AUTO 03010KT 9999 FEW013 05/03 Q1015 NOSIG
05:20
V
5 °C 10 km+ - 030° 030° 11 kt METAR EDDL 270420Z AUTO 03011KT 9999 FEW013 05/03 Q1014 NOSIG
04:50
V
5 °C 10 km+ - 020° 020° 11 kt METAR EDDL 270350Z AUTO 02011KT 9999 FEW014 05/03 Q1014 NOSIG
04:20
V
6 °C 10 km+ - 030° 030° 11 kt METAR EDDL 270320Z AUTO 03011KT 9999 FEW015 06/03 Q1014 NOSIG
03:50
V
6 °C 10 km+ - 020° 020° 10 kt METAR EDDL 270250Z AUTO 02010KT 9999 FEW015 06/03 Q1014 NOSIG
03:20
V
6 °C 10 km+ - 030° 030° 9 kt METAR EDDL 270220Z AUTO 03009KT 9999 FEW016 06/03 Q1014 NOSIG
02:50
V
6 °C 10 km+ 4.900 ft 020° 020° 10 kt METAR EDDL 270150Z AUTO 02010KT 9999 FEW016 BKN049 06/03 Q1013 NOSIG
02:20
V
6 °C 10 km+ 4.700 ft 030° 030° 10 kt METAR EDDL 270120Z AUTO 03010KT 9999 -SHRA FEW025 BKN047 FEW///TCU 06/03 Q1013 NOSIG
01:50
V
6 °C 10 km+ 4.800 ft 020° 020° 10 kt METAR EDDL 270050Z AUTO 02010KT 350V050 9999 FEW015 BKN048 06/03 Q1013 NOSIG
01:20
V
6 °C 10 km+ 4.500 ft 020° 020° 10 kt METAR EDDL 270020Z AUTO 02010KT 9999 SCT015 BKN045 06/03 Q1013 NOSIG
00:50
M
6 °C 10 km+ 1.600 ft 020° 020° 11 kt METAR EDDL 262350Z AUTO 02011KT 9999 -RA BKN016 OVC044 06/03 Q1013 NOSIG
00:20
V
6 °C 10 km+ 4.300 ft 020° 020° 11 kt METAR EDDL 262320Z AUTO 02011KT 9999 -RA SCT016 OVC043 06/04 Q1013 NOSIG

26 lutego 2024

Czas Kod Pogoda Temp. Widoczność Sufit Wiatr METAR/SPECI
23:50
M
6 °C 10 km+ 1.600 ft 020° 020° 12 kt METAR EDDL 262250Z AUTO 02012KT 9999 -SHRA BKN016 OVC044 FEW///CB 06/04 Q1012 NOSIG
23:20
M
6 °C 10 km+ 1.600 ft 020° 020° 12 kt METAR EDDL 262220Z AUTO 02012KT 350V050 9999 BKN016 OVC044 06/04 Q1012 NOSIG
22:50
V
6 °C 10 km+ 4.400 ft 020° 020° 13 kt METAR EDDL 262150Z AUTO 02013KT 9999 SCT016 OVC044 06/04 Q1011 NOSIG
22:20
V
7 °C 10 km+ 4.400 ft 020° 020° 14 kt METAR EDDL 262120Z AUTO 02014KT 9999 FEW016 OVC044 07/04 Q1011 NOSIG
21:50
V
7 °C 10 km+ 4.400 ft 020° 020° 13 kt METAR EDDL 262050Z AUTO 02013KT 9999 OVC044 07/04 Q1010 NOSIG
21:20
V
7 °C 10 km+ 4.400 ft 020° 020° 12 kt METAR EDDL 262020Z AUTO 02012KT 350V050 9999 BKN044 07/04 Q1010 NOSIG
20:50
V
7 °C 10 km+ 4.600 ft 020° 020° 12 kt METAR EDDL 261950Z AUTO 02012KT 9999 BKN046 07/04 Q1009 NOSIG
20:20
V
7 °C 10 km+ 4.600 ft 020° 020° 12 kt METAR EDDL 261920Z AUTO 02012KT 9999 FEW034 BKN046 07/04 Q1009 NOSIG
19:50
V
7 °C 10 km+ 4.500 ft 020° 020° 10 kt METAR EDDL 261850Z AUTO 02010KT 9999 -SHRA FEW029 SCT034 OVC045 FEW///CB 07/03 Q1009 NOSIG
19:20
V
7 °C 10 km+ 4.000 ft 020° 020° 10 kt METAR EDDL 261820Z AUTO 02010KT 9999 -RA BKN040 07/04 Q1008 NOSIG
18:50
V
7 °C 10 km+ 3.900 ft 020° 020° 13 kt METAR EDDL 261750Z AUTO 02013KT 9999 FEW023 OVC039 07/03 Q1007 NOSIG
18:20
V
7 °C 10 km+ 3.800 ft 020° 020° 11 kt METAR EDDL 261720Z AUTO 02011KT 9999 OVC038 07/03 Q1007 NOSIG
17:50
V
7 °C 10 km+ 3.900 ft 020° 020° 11 kt METAR EDDL 261650Z AUTO 02011KT 9999 OVC039 07/03 Q1006 NOSIG
17:20
V
7 °C 10 km+ 4.200 ft 020° 020° 11 kt METAR EDDL 261620Z AUTO 02011KT 9999 OVC042 07/03 Q1006 NOSIG
16:50
V
7 °C 10 km+ 4.100 ft 020° 020° 10 kt METAR EDDL 261550Z AUTO 02010KT 9999 OVC041 07/04 Q1005 NOSIG
16:20
V
7 °C 10 km+ 3.800 ft 020° 020° 8 kt METAR EDDL 261520Z AUTO 02008KT 9999 -RA FEW021 OVC038 07/04 Q1005 NOSIG
15:50
V
7 °C 10 km+ 3.600 ft 040° 040° 9 kt METAR EDDL 261450Z AUTO 04009KT 010V070 9999 -RA OVC036 07/04 Q1004 NOSIG
15:20
V
7 °C 10 km+ 3.400 ft 040° 040° 10 kt METAR EDDL 261420Z AUTO 04010KT 340V060 9999 -RA BKN034 BKN040 07/04 Q1004 NOSIG
14:50
V
7 °C 10 km+ 3.100 ft 030° 030° 7 kt METAR EDDL 261350Z AUTO 03007KT 350V060 9999 BKN031 07/05 Q1004 NOSIG
14:20
M
7 °C 10 km+ 2.600 ft 030° 030° 7 kt METAR EDDL 261320Z AUTO 03007KT 350V050 9999 -RA FEW012 BKN026 OVC030 07/05 Q1004 NOSIG
13:50
M
6 °C 8 km 2.900 ft 030° 030° 7 kt METAR EDDL 261250Z AUTO 03007KT 8000 -RADZ BKN029 06/05 Q1003 TEMPO 4000 DZRA
13:20
M
6 °C 10 km+ 2.800 ft 040° 040° 8 kt METAR EDDL 261220Z AUTO 04008KT 9999 -RA OVC028 06/05 Q1003 NOSIG
12:50
M
6 °C 10 km+ 2.600 ft 050° 050° 10 kt METAR EDDL 261150Z AUTO 05010KT 010V070 9999 -RA BKN026 06/05 Q1003 TEMPO RA
12:20
M
5 °C 10 km+ 2.700 ft 040° 040° 11 kt METAR EDDL 261120Z AUTO 04011KT 9999 -RA BKN027 05/04 Q1002 NOSIG
11:50
M
5 °C 10 km+ 2.700 ft 040° 040° 8 kt METAR EDDL 261050Z AUTO 04008KT 9999 -RA BKN027 05/04 Q1002 TEMPO RA
11:20
M
5 °C 9 km 2.700 ft 040° 040° 9 kt METAR EDDL 261020Z AUTO 04009KT 9000 -RA BKN027 OVC031 05/04 Q1002 RERA TEMPO RA
10:50
M
5 °C 10 km+ 2.700 ft 050° 050° 8 kt METAR EDDL 260950Z AUTO 05008KT 9999 -RA BKN027 OVC036 05/04 Q1001 TEMPO RA
10:20
M
5 °C 10 km+ 2.800 ft 050° 050° 9 kt METAR EDDL 260920Z AUTO 05009KT 9999 -RA BKN028 OVC037 05/04 Q1001 TEMPO RA
09:50
M
5 °C 10 km+ 2.800 ft 060° 060° 9 kt METAR EDDL 260850Z AUTO 06009KT 9999 -RA BKN028 05/04 Q1001 TEMPO RADZ
09:20
M
5 °C 10 km+ 2.900 ft 050° 050° 10 kt METAR EDDL 260820Z AUTO 05010KT 9999 -RA BKN029 OVC035 05/04 Q1000 TEMPO RADZ
08:50
M
5 °C 10 km+ 2.800 ft 060° 060° 9 kt METAR EDDL 260750Z AUTO 06009KT 9999 -RA BKN028 OVC038 05/04 Q1000 TEMPO RADZ
08:20
M
5 °C 10 km+ 3.000 ft 050° 050° 10 kt METAR EDDL 260720Z AUTO 05010KT 9999 -RA BKN030 05/03 Q1000 NOSIG
07:50
V
5 °C 10 km+ 3.100 ft 050° 050° 12 kt METAR EDDL 260650Z AUTO 05012KT 9999 -RA BKN031 OVC040 05/03 Q0999 TEMPO RA
07:20
V
5 °C 10 km+ 3.100 ft 050° 050° 12 kt METAR EDDL 260620Z AUTO 05012KT 9999 -RA BKN031 05/03 Q0999 NOSIG
06:50
V
5 °C 10 km+ 3.100 ft 050° 050° 11 kt METAR EDDL 260550Z AUTO 05011KT 9999 -RA BKN031 OVC038 05/03 Q0999 NOSIG